createdAt,value
2018-06-16T00:00:12.754Z,49.85
2018-06-16T00:01:21.662Z,49.75
2018-06-16T00:02:31.351Z,49.85
2018-06-16T00:03:40.807Z,49.65
2018-06-16T00:04:50.231Z,49.65
2018-06-16T00:06:00.165Z,49.75
2018-06-16T00:07:09.597Z,49.75
2018-06-16T00:08:19.536Z,49.65
2018-06-16T00:09:28.458Z,49.65
2018-06-16T00:10:38.172Z,49.95
2018-06-16T00:11:47.615Z,49.65
2018-06-16T00:12:57.291Z,49.65
2018-06-16T00:14:06.491Z,49.65
2018-06-16T00:15:15.905Z,49.95
2018-06-16T00:16:25.080Z,49.95
2018-06-16T00:17:34.538Z,49.95
2018-06-16T00:18:43.711Z,50.04
2018-06-16T00:19:53.403Z,50.04
2018-06-16T00:21:02.578Z,50.04
2018-06-16T00:22:12.515Z,50.04
2018-06-16T00:23:21.715Z,49.95
2018-06-16T00:24:30.873Z,49.65
2018-06-16T00:25:39.783Z,50.04
2018-06-16T00:26:48.960Z,50.04
2018-06-16T00:27:58.686Z,50.04
2018-06-16T00:29:07.892Z,49.65
2018-06-16T00:30:17.054Z,50.04
2018-06-16T00:31:25.969Z,50.04
2018-06-16T00:32:35.636Z,50.04
2018-06-16T00:33:45.049Z,50.04
2018-06-16T00:34:54.226Z,50.04
2018-06-16T00:36:03.915Z,50.14
2018-06-16T00:37:13.122Z,50.14
2018-06-16T00:38:22.592Z,49.95
2018-06-16T00:39:32.395Z,50.04
2018-06-16T00:40:41.603Z,50.04
2018-06-16T00:41:50.829Z,50.14
2018-06-16T00:43:00.529Z,49.95
2018-06-16T00:44:10.058Z,49.85
2018-06-16T00:45:19.894Z,50.04
2018-06-16T00:46:29.140Z,50.04
2018-06-16T00:47:39.011Z,49.95
2018-06-16T00:48:48.186Z,49.95
2018-06-16T00:49:57.604Z,50.04
2018-06-16T00:51:06.512Z,50.14
2018-06-16T00:52:15.421Z,50.24
2018-06-16T00:53:24.574Z,50.14
2018-06-16T00:54:34.234Z,50.14
2018-06-16T00:55:43.923Z,50.04
2018-06-16T00:56:53.104Z,50.14
2018-06-16T00:58:02.804Z,49.95
2018-06-16T00:59:12.231Z,50.14
2018-06-16T01:00:21.646Z,50.24
2018-06-16T01:01:31.088Z,49.95
2018-06-16T01:02:40.272Z,49.95
2018-06-16T01:03:50.223Z,49.95
2018-06-16T01:04:59.904Z,49.85
2018-06-16T01:06:09.330Z,50.04
2018-06-16T01:07:17.979Z,50.24
2018-06-16T01:08:27.425Z,50.14
2018-06-16T01:09:36.593Z,50.14
2018-06-16T01:10:46.015Z,50.14
2018-06-16T01:11:55.685Z,50.04
2018-06-16T01:13:04.842Z,50.04
2018-06-16T01:14:13.828Z,50.14
2018-06-16T01:15:23.256Z,49.95
2018-06-16T01:16:32.705Z,50.14
2018-06-16T01:17:42.161Z,49.95
2018-06-16T01:18:51.847Z,50.04
2018-06-16T01:20:01.530Z,50.14
2018-06-16T01:21:10.960Z,50.14
2018-06-16T01:22:20.691Z,49.95
2018-06-16T01:23:29.618Z,50.04
2018-06-16T01:24:39.085Z,50.04
2018-06-16T01:25:48.793Z,50.04
2018-06-16T01:26:58.508Z,50.04
2018-06-16T01:28:08.187Z,50.04
2018-06-16T01:29:18.135Z,50.04
2018-06-16T01:30:27.566Z,50.04
2018-06-16T01:31:36.727Z,50.14
2018-06-16T01:32:46.159Z,50.04
2018-06-16T01:33:55.863Z,50.04
2018-06-16T01:35:05.054Z,50.04
2018-06-16T01:36:14.228Z,49.95
2018-06-16T01:37:23.158Z,50.04
2018-06-16T01:38:32.624Z,49.95
2018-06-16T01:39:41.786Z,50.04
2018-06-16T01:40:50.975Z,49.65
2018-06-16T01:42:00.159Z,50.04
2018-06-16T01:43:09.345Z,49.65
2018-06-16T01:44:19.029Z,49.95
2018-06-16T01:45:28.441Z,50.14
2018-06-16T01:46:37.603Z,50.04
2018-06-16T01:47:47.079Z,50.14
2018-06-16T01:48:56.252Z,50.14
2018-06-16T01:50:05.409Z,49.65
2018-06-16T01:51:14.567Z,49.95
2018-06-16T01:52:23.763Z,50.14
2018-06-16T01:53:33.173Z,49.85
2018-06-16T01:54:42.590Z,49.65
2018-06-16T01:55:52.028Z,49.95
2018-06-16T01:57:01.953Z,49.95
2018-06-16T01:58:11.394Z,49.65
2018-06-16T01:59:20.296Z,49.65
2018-06-16T02:00:29.777Z,49.65
2018-06-16T02:01:38.693Z,50.04
2018-06-16T02:02:48.142Z,49.65
2018-06-16T02:03:57.307Z,49.95
2018-06-16T02:05:06.733Z,49.65
2018-06-16T02:06:16.407Z,49.65
2018-06-16T02:07:25.849Z,49.65
2018-06-16T02:08:35.273Z,49.95
2018-06-16T02:09:44.452Z,50.02
2018-06-16T02:10:53.362Z,49.85
2018-06-16T02:12:02.823Z,49.75
2018-06-16T02:13:12.242Z,49.65
2018-06-16T02:14:22.185Z,50.04
2018-06-16T02:15:31.605Z,49.65
2018-06-16T02:16:41.542Z,49.65
2018-06-16T02:17:51.236Z,50.04
2018-06-16T02:19:00.934Z,50.14
2018-06-16T02:20:10.628Z,50.04
2018-06-16T02:21:20.053Z,49.65
2018-06-16T02:22:28.973Z,49.75
2018-06-16T02:23:38.131Z,49.75
2018-06-16T02:24:47.583Z,50.04
2018-06-16T02:25:57.042Z,50.04
2018-06-16T02:27:06.726Z,50.04
2018-06-16T02:28:16.433Z,50.14
2018-06-16T02:29:25.862Z,50.04
2018-06-16T02:30:35.288Z,49.63
2018-06-16T02:31:44.982Z,49.65
2018-06-16T02:32:54.406Z,49.63
2018-06-16T02:34:03.574Z,49.65
2018-06-16T02:35:13.249Z,49.65
2018-06-16T02:36:22.680Z,49.95
2018-06-16T02:37:32.404Z,49.92
2018-06-16T02:38:41.941Z,49.85
2018-06-16T02:39:51.371Z,49.85
2018-06-16T02:41:01.048Z,49.95
2018-06-16T02:42:10.485Z,49.95
2018-06-16T02:43:20.182Z,49.63
2018-06-16T02:44:29.364Z,49.75
2018-06-16T02:45:39.051Z,49.95
2018-06-16T02:46:48.486Z,49.75
2018-06-16T02:47:58.182Z,49.85
2018-06-16T02:49:07.100Z,50.12
2018-06-16T02:50:17.350Z,49.63
2018-06-16T02:51:27.272Z,49.95
2018-06-16T02:52:36.997Z,50.04
2018-06-16T02:53:45.971Z,49.75
2018-06-16T02:54:55.406Z,49.65
2018-06-16T02:56:04.605Z,49.73
2018-06-16T02:57:14.571Z,49.95
2018-06-16T02:58:23.482Z,49.85
2018-06-16T02:59:32.918Z,49.63
2018-06-16T03:00:42.358Z,50.04
2018-06-16T03:01:52.080Z,49.65
2018-06-16T03:03:02.063Z,50.14
2018-06-16T03:04:11.763Z,49.65
2018-06-16T03:05:21.193Z,49.92
2018-06-16T03:06:31.179Z,50.14
2018-06-16T03:07:40.886Z,50.04
2018-06-16T03:08:50.328Z,49.65
2018-06-16T03:09:59.755Z,50.04
2018-06-16T03:11:09.189Z,50.02
2018-06-16T03:12:18.871Z,49.65
2018-06-16T03:13:28.319Z,49.95
2018-06-16T03:14:38.033Z,50.04
2018-06-16T03:15:47.728Z,50.14
2018-06-16T03:16:57.423Z,49.95
2018-06-16T03:18:06.584Z,50.14
2018-06-16T03:19:16.000Z,49.95
2018-06-16T03:20:25.494Z,50.04
2018-06-16T03:21:34.403Z,50.04
2018-06-16T03:22:43.590Z,50.02
2018-06-16T03:23:52.753Z,50.02
2018-06-16T03:25:02.175Z,49.95
2018-06-16T03:26:11.616Z,50.04
2018-06-16T03:27:21.323Z,49.95
2018-06-16T03:28:30.752Z,50.02
2018-06-16T03:29:40.430Z,49.65
2018-06-16T03:30:49.591Z,49.95
2018-06-16T03:31:59.549Z,49.95
2018-06-16T03:33:08.975Z,49.95
2018-06-16T03:34:18.655Z,50.02
2018-06-16T03:35:27.574Z,49.65
2018-06-16T03:36:37.260Z,49.95
2018-06-16T03:37:46.438Z,49.95
2018-06-16T03:38:55.338Z,49.95
2018-06-16T03:40:05.021Z,50.04
2018-06-16T03:41:14.201Z,50.02
2018-06-16T03:42:23.630Z,50.14
2018-06-16T03:43:32.834Z,50.04
2018-06-16T03:44:42.008Z,50.02
2018-06-16T03:45:51.424Z,50.12
2018-06-16T03:47:00.872Z,49.95
2018-06-16T03:48:10.598Z,49.92
2018-06-16T03:49:19.505Z,49.95
2018-06-16T03:50:28.741Z,50.12
2018-06-16T03:51:38.432Z,50.14
2018-06-16T03:52:47.088Z,49.92
2018-06-16T03:53:56.526Z,50.14
2018-06-16T03:55:05.962Z,49.95
2018-06-16T03:56:15.634Z,50.14
2018-06-16T03:57:25.069Z,50.04
2018-06-16T03:58:34.839Z,50.04
2018-06-16T03:59:44.518Z,50.14
2018-06-16T04:00:53.696Z,50.04
2018-06-16T04:02:03.402Z,49.65
2018-06-16T04:03:12.823Z,50.14
2018-06-16T04:04:21.733Z,50.14
2018-06-16T04:05:30.917Z,50.04
2018-06-16T04:06:39.822Z,49.95
2018-06-16T04:07:49.323Z,49.95
2018-06-16T04:08:58.792Z,49.85
2018-06-16T04:10:08.223Z,50.14
2018-06-16T04:11:17.662Z,50.04
2018-06-16T04:12:27.370Z,50.04
2018-06-16T04:13:36.803Z,49.95
2018-06-16T04:14:46.282Z,50.14
2018-06-16T04:15:56.224Z,49.85
2018-06-16T04:17:06.222Z,50.02
2018-06-16T04:18:15.393Z,49.95
2018-06-16T04:19:24.564Z,50.04
2018-06-16T04:20:33.739Z,50.12
2018-06-16T04:21:43.437Z,50.04
2018-06-16T04:22:53.126Z,50.04
2018-06-16T04:24:02.736Z,49.95
2018-06-16T04:25:12.113Z,50.04
2018-06-16T04:26:21.296Z,50.14
2018-06-16T04:27:30.980Z,50.14
2018-06-16T04:28:40.179Z,50.04
2018-06-16T04:29:48.841Z,50.14
2018-06-16T04:30:58.022Z,50.12
2018-06-16T04:32:07.702Z,50.12
2018-06-16T04:33:16.873Z,49.95
2018-06-16T04:34:26.299Z,49.95
2018-06-16T04:35:35.468Z,49.85
2018-06-16T04:36:44.911Z,50.14
2018-06-16T04:37:54.078Z,50.14
2018-06-16T04:39:03.518Z,50.04
2018-06-16T04:40:12.728Z,50.14
2018-06-16T04:41:21.645Z,50.12
2018-06-16T04:42:31.586Z,50.14
2018-06-16T04:43:41.014Z,50.14
2018-06-16T04:44:50.030Z,50.02
2018-06-16T04:45:59.194Z,50.14
2018-06-16T04:47:08.630Z,50.04
2018-06-16T04:48:17.827Z,50.04
2018-06-16T04:49:27.255Z,50.14
2018-06-16T04:50:36.199Z,50.12
2018-06-16T04:51:45.955Z,50.04
2018-06-16T04:52:55.672Z,50.14
2018-06-16T04:54:05.094Z,50.14
2018-06-16T04:55:14.258Z,49.95
2018-06-16T04:56:23.940Z,50.24
2018-06-16T04:57:33.642Z,50.04
2018-06-16T04:58:43.598Z,49.95
2018-06-16T04:59:53.025Z,50.14
2018-06-16T05:01:02.504Z,49.75
2018-06-16T05:02:11.664Z,50.24
2018-06-16T05:03:21.355Z,50.04
2018-06-16T05:04:31.023Z,49.75
2018-06-16T05:05:40.714Z,50.02
2018-06-16T05:06:50.392Z,50.24
2018-06-16T05:08:00.078Z,50.21
2018-06-16T05:09:09.520Z,49.75
2018-06-16T05:10:19.236Z,50.04
2018-06-16T05:11:28.149Z,50.04
2018-06-16T05:12:37.864Z,49.75
2018-06-16T05:13:47.544Z,50.02
2018-06-16T05:14:57.483Z,50.14
2018-06-16T05:16:06.952Z,50.02
2018-06-16T05:17:16.129Z,50.04
2018-06-16T05:18:25.579Z,50.12
2018-06-16T05:19:35.026Z,50.14
2018-06-16T05:20:44.459Z,50.12
2018-06-16T05:21:53.981Z,50.14
2018-06-16T05:23:03.881Z,50.04
2018-06-16T05:24:13.654Z,50.14
2018-06-16T05:25:22.846Z,50.04
2018-06-16T05:26:32.556Z,50.14
2018-06-16T05:27:41.489Z,50.12
2018-06-16T05:28:51.177Z,50.04
2018-06-16T05:30:00.594Z,50.04
2018-06-16T05:31:09.770Z,50.04
2018-06-16T05:32:19.201Z,50.04
2018-06-16T05:33:29.163Z,50.14
2018-06-16T05:34:38.585Z,49.95
2018-06-16T05:35:47.769Z,50.02
2018-06-16T05:36:57.182Z,50.04
2018-06-16T05:38:06.348Z,50.04
2018-06-16T05:39:15.793Z,49.92
2018-06-16T05:40:24.976Z,50.04
2018-06-16T05:41:33.902Z,50.04
2018-06-16T05:42:43.075Z,50.04
2018-06-16T05:43:52.502Z,50.04
2018-06-16T05:45:01.675Z,50.14
2018-06-16T05:46:10.862Z,49.95
2018-06-16T05:47:20.280Z,49.75
2018-06-16T05:48:29.208Z,50.04
2018-06-16T05:49:38.425Z,50.04
2018-06-16T05:50:47.869Z,49.56
2018-06-16T05:51:57.306Z,49.95
2018-06-16T05:53:06.771Z,49.95
2018-06-16T05:54:15.692Z,49.92
2018-06-16T05:55:24.912Z,49.65
2018-06-16T05:56:34.644Z,49.95
2018-06-16T05:57:43.844Z,49.95
2018-06-16T05:58:53.295Z,49.54
2018-06-16T06:00:03.276Z,49.65
2018-06-16T06:01:12.192Z,49.65
2018-06-16T06:02:21.658Z,49.56
2018-06-16T06:03:30.817Z,49.63
2018-06-16T06:04:40.749Z,49.56
2018-06-16T06:05:49.944Z,49.92
2018-06-16T06:06:59.659Z,49.56
2018-06-16T06:08:08.565Z,49.56
2018-06-16T06:09:17.983Z,49.65
2018-06-16T06:10:27.869Z,49.65
2018-06-16T06:11:38.165Z,49.65
2018-06-16T06:12:47.876Z,49.65
2018-06-16T06:13:57.053Z,49.65
2018-06-16T06:15:05.707Z,49.65
2018-06-16T06:16:15.140Z,49.56
2018-06-16T06:17:24.562Z,49.56
2018-06-16T06:18:34.248Z,49.65
2018-06-16T06:19:43.679Z,49.54
2018-06-16T06:20:53.117Z,49.56
2018-06-16T06:22:02.060Z,49.56
2018-06-16T06:23:11.491Z,49.56
2018-06-16T06:24:21.503Z,49.54
2018-06-16T06:25:31.189Z,49.46
2018-06-16T06:26:41.181Z,49.56
2018-06-16T06:27:50.871Z,49.56
2018-06-16T06:29:00.373Z,49.56
2018-06-16T06:30:09.839Z,49.34
2018-06-16T06:31:19.290Z,49.63
2018-06-16T06:32:29.064Z,49.56
2018-06-16T06:33:38.616Z,49.46
2018-06-16T06:34:48.564Z,49.46
2018-06-16T06:35:58.294Z,49.56
2018-06-16T06:37:08.338Z,49.63
2018-06-16T06:38:17.865Z,49.46
2018-06-16T06:39:27.041Z,49.34
2018-06-16T06:40:36.492Z,49.63
2018-06-16T06:41:45.930Z,49.65
2018-06-16T06:42:55.632Z,49.37
2018-06-16T06:44:04.825Z,49.56
2018-06-16T06:45:14.569Z,49.56
2018-06-16T06:46:24.246Z,49.65
2018-06-16T06:47:33.427Z,49.75
2018-06-16T06:48:42.709Z,49.65
2018-06-16T06:49:52.737Z,49.46
2018-06-16T06:51:01.973Z,49.65
2018-06-16T06:52:11.159Z,49.46
2018-06-16T06:53:20.077Z,49.75
2018-06-16T06:54:29.499Z,49.46
2018-06-16T06:55:38.927Z,49.46
2018-06-16T06:56:48.099Z,49.65
2018-06-16T06:57:57.548Z,49.65
2018-06-16T06:59:07.061Z,49.65
2018-06-16T07:00:16.518Z,49.65
2018-06-16T07:01:26.475Z,49.65
2018-06-16T07:02:36.234Z,49.65
2018-06-16T07:03:45.413Z,49.65
2018-06-16T07:04:54.324Z,49.56
2018-06-16T07:06:03.756Z,49.46
2018-06-16T07:07:13.008Z,49.46
2018-06-16T07:08:22.735Z,49.75
2018-06-16T07:09:32.612Z,49.46
2018-06-16T07:10:41.965Z,49.65
2018-06-16T07:11:51.965Z,49.75
2018-06-16T07:13:01.418Z,49.46
2018-06-16T07:14:10.369Z,49.75
2018-06-16T07:15:19.839Z,49.75
2018-06-16T07:16:29.011Z,49.75
2018-06-16T07:17:38.697Z,49.65
2018-06-16T07:18:47.621Z,49.54
2018-06-16T07:19:56.560Z,49.75
2018-06-16T07:21:05.992Z,49.75
2018-06-16T07:22:15.421Z,49.75
2018-06-16T07:23:25.136Z,49.56
2018-06-16T07:24:35.197Z,49.65
2018-06-16T07:25:44.891Z,49.65
2018-06-16T07:26:54.051Z,49.65
2018-06-16T07:28:03.240Z,49.85
2018-06-16T07:29:12.714Z,49.85
2018-06-16T07:30:23.005Z,49.75
2018-06-16T07:31:32.700Z,49.65
2018-06-16T07:32:41.349Z,49.75
2018-06-16T07:33:51.017Z,49.65
2018-06-16T07:34:59.685Z,49.75
2018-06-16T07:36:08.668Z,49.75
2018-06-16T07:37:18.525Z,49.65
2018-06-16T07:38:27.975Z,49.75
2018-06-16T07:39:37.132Z,49.85
2018-06-16T07:40:46.571Z,49.65
2018-06-16T07:41:56.275Z,49.65
2018-06-16T07:43:05.491Z,49.65
2018-06-16T07:44:14.907Z,49.75
2018-06-16T07:45:24.335Z,49.75
2018-06-16T07:46:34.035Z,49.75
2018-06-16T07:47:43.205Z,49.65
2018-06-16T07:48:52.451Z,49.75
2018-06-16T07:50:01.653Z,49.75
2018-06-16T07:51:11.066Z,49.75
2018-06-16T07:52:20.485Z,49.65
2018-06-16T07:53:29.959Z,49.65
2018-06-16T07:54:39.140Z,49.75
2018-06-16T07:55:48.855Z,49.85
2018-06-16T07:56:58.299Z,49.75
2018-06-16T07:58:07.478Z,49.75
2018-06-16T07:59:16.936Z,49.65
2018-06-16T08:00:26.371Z,49.75
2018-06-16T08:01:35.816Z,49.75
2018-06-16T08:02:45.323Z,49.85
2018-06-16T08:03:55.395Z,49.75
2018-06-16T08:05:04.335Z,49.75
2018-06-16T08:06:13.801Z,49.75
2018-06-16T08:07:23.235Z,49.65
2018-06-16T08:08:32.421Z,49.75
2018-06-16T08:09:41.580Z,49.75
2018-06-16T08:10:50.761Z,49.75
2018-06-16T08:12:00.229Z,49.65
2018-06-16T08:13:09.453Z,49.85
2018-06-16T08:14:19.118Z,49.75
2018-06-16T08:15:28.308Z,49.75
2018-06-16T08:16:37.484Z,49.75
2018-06-16T08:17:47.435Z,49.75
2018-06-16T08:18:56.592Z,49.75
2018-06-16T08:20:06.018Z,49.75
2018-06-16T08:21:14.937Z,49.65
2018-06-16T08:22:24.884Z,49.75
2018-06-16T08:23:34.851Z,49.85
2018-06-16T08:24:44.548Z,49.75
2018-06-16T08:25:54.241Z,49.75
2018-06-16T08:27:03.719Z,49.37
2018-06-16T08:28:12.653Z,49.85
2018-06-16T08:29:21.828Z,49.85
2018-06-16T08:30:31.017Z,49.85
2018-06-16T08:31:40.464Z,49.27
2018-06-16T08:32:49.906Z,49.37
2018-06-16T08:33:59.524Z,49.37
2018-06-16T08:35:09.043Z,49.85
2018-06-16T08:36:18.469Z,49.85
2018-06-16T08:37:28.149Z,49.75
2018-06-16T08:38:37.862Z,49.75
2018-06-16T08:39:47.033Z,49.75
2018-06-16T08:40:56.738Z,49.75
2018-06-16T08:42:05.673Z,49.37
2018-06-16T08:43:14.827Z,49.85
2018-06-16T08:44:24.920Z,49.85
2018-06-16T08:45:34.345Z,49.75
2018-06-16T08:46:43.801Z,49.27
2018-06-16T08:47:52.979Z,49.85
2018-06-16T08:49:01.963Z,49.37
2018-06-16T08:50:11.121Z,49.37
2018-06-16T08:51:20.550Z,49.85
2018-06-16T08:52:29.754Z,49.37
2018-06-16T08:53:39.190Z,49.37
2018-06-16T08:54:48.369Z,49.37
2018-06-16T08:55:57.809Z,49.85
2018-06-16T08:57:07.027Z,49.56
2018-06-16T08:58:15.950Z,49.65
2018-06-16T08:59:25.448Z,49.37
2018-06-16T09:00:34.914Z,49.37
2018-06-16T09:01:44.606Z,49.56
2018-06-16T09:02:53.798Z,49.37
2018-06-16T09:04:02.990Z,49.56
2018-06-16T09:05:12.172Z,49.37
2018-06-16T09:06:21.615Z,49.65
2018-06-16T09:07:31.291Z,49.17
2018-06-16T09:08:40.472Z,49.46
2018-06-16T09:09:50.179Z,49.27
2018-06-16T09:10:59.614Z,49.56
2018-06-16T09:12:09.033Z,49.56
2018-06-16T09:13:18.719Z,49.56
2018-06-16T09:14:27.908Z,49.65
2018-06-16T09:15:36.851Z,49.27
2018-06-16T09:16:46.037Z,49.46
2018-06-16T09:17:55.762Z,49.27
2018-06-16T09:19:04.965Z,49.46
2018-06-16T09:20:13.934Z,49.27
2018-06-16T09:21:23.356Z,49.17
2018-06-16T09:22:32.838Z,49.27
2018-06-16T09:23:41.804Z,49.27
2018-06-16T09:24:51.255Z,49.56
2018-06-16T09:26:00.402Z,49.17
2018-06-16T09:27:09.849Z,49.27
2018-06-16T09:28:19.282Z,49.27
2018-06-16T09:29:29.223Z,49.17
2018-06-16T09:30:38.138Z,49.17
2018-06-16T09:31:47.873Z,49.17
2018-06-16T09:32:57.431Z,49.27
2018-06-16T09:34:06.086Z,49.17
2018-06-16T09:35:15.250Z,49.07
2018-06-16T09:36:24.424Z,49.17
2018-06-16T09:37:33.683Z,49.17
2018-06-16T09:38:43.384Z,49.17
2018-06-16T09:39:52.815Z,49.27
2018-06-16T09:41:01.995Z,49.27
2018-06-16T09:42:10.934Z,49.17
2018-06-16T09:43:19.874Z,49.17
2018-06-16T09:44:28.825Z,49.27
2018-06-16T09:45:37.759Z,49.17
2018-06-16T09:46:47.262Z,49.17
2018-06-16T09:47:56.950Z,49.46
2018-06-16T09:49:06.121Z,49.17
2018-06-16T09:50:15.295Z,49.37
2018-06-16T09:51:24.970Z,49.27
2018-06-16T09:52:34.661Z,49.17
2018-06-16T09:53:44.088Z,49.27
2018-06-16T09:54:53.530Z,49.17
2018-06-16T09:56:02.716Z,49.17
2018-06-16T09:57:11.879Z,49.17
2018-06-16T09:58:21.570Z,49.46
2018-06-16T09:59:30.999Z,49.17
2018-06-16T10:00:40.450Z,49.27
2018-06-16T10:01:49.631Z,49.27
2018-06-16T10:02:59.622Z,49.27
2018-06-16T10:04:09.395Z,49.56
2018-06-16T10:05:18.572Z,49.46
2018-06-16T10:06:27.746Z,49.27
2018-06-16T10:07:37.277Z,49.27
2018-06-16T10:08:46.866Z,49.46
2018-06-16T10:09:56.644Z,49.46
2018-06-16T10:11:06.423Z,49.37
2018-06-16T10:12:15.856Z,49.37
2018-06-16T10:13:25.090Z,49.27
2018-06-16T10:14:34.654Z,49.27
2018-06-16T10:15:43.854Z,49.27
2018-06-16T10:16:53.284Z,49.37
2018-06-16T10:18:02.602Z,49.37
2018-06-16T10:19:11.655Z,49.37
2018-06-16T10:20:21.594Z,49.37
2018-06-16T10:21:31.529Z,49.07
2018-06-16T10:22:40.806Z,49.27
2018-06-16T10:23:50.209Z,49.37
2018-06-16T10:24:59.410Z,49.17
2018-06-16T10:26:08.761Z,49.07
2018-06-16T10:27:18.002Z,49.07
2018-06-16T10:28:27.207Z,49.37
2018-06-16T10:29:36.448Z,49.37
2018-06-16T10:30:46.195Z,49.07
2018-06-16T10:31:55.391Z,49.27
2018-06-16T10:33:05.550Z,49.37
2018-06-16T10:34:15.201Z,49.07
2018-06-16T10:35:23.909Z,49.56
2018-06-16T10:36:33.359Z,48.97
2018-06-16T10:37:43.127Z,49.07
2018-06-16T10:38:52.518Z,49.07
2018-06-16T10:40:02.267Z,49.07
2018-06-16T10:41:11.484Z,49.17
2018-06-16T10:42:20.679Z,49.37
2018-06-16T10:43:29.895Z,49.46
2018-06-16T10:44:39.865Z,49.07
2018-06-16T10:45:49.317Z,49.46
2018-06-16T10:46:59.297Z,49.07
2018-06-16T10:48:09.128Z,48.79
2018-06-16T10:49:18.303Z,49.37
2018-06-16T10:50:27.773Z,48.97
2018-06-16T10:51:37.606Z,49.07
2018-06-16T10:52:47.340Z,49.56
2018-06-16T10:53:56.791Z,48.97
2018-06-16T10:55:06.063Z,49.27
2018-06-16T10:56:15.813Z,49.07
2018-06-16T10:57:25.790Z,48.79
2018-06-16T10:58:35.731Z,49.07
2018-06-16T10:59:45.441Z,48.97
2018-06-16T11:00:54.943Z,49.07
2018-06-16T11:02:03.909Z,49.56
2018-06-16T11:03:13.150Z,48.97
2018-06-16T11:04:22.113Z,49.07
2018-06-16T11:05:31.152Z,49.17
2018-06-16T11:06:40.780Z,49.07
2018-06-16T11:07:50.259Z,49.07
2018-06-16T11:08:59.994Z,49.07
2018-06-16T11:10:09.448Z,49.27
2018-06-16T11:11:19.060Z,48.79
2018-06-16T11:12:28.379Z,49.07
2018-06-16T11:13:37.807Z,49.07
2018-06-16T11:14:47.597Z,49.17
2018-06-16T11:15:57.093Z,48.97
2018-06-16T11:17:06.602Z,49.17
2018-06-16T11:18:16.374Z,48.79
2018-06-16T11:19:25.843Z,48.97
2018-06-16T11:20:35.296Z,48.88
2018-06-16T11:21:44.826Z,49.07
2018-06-16T11:22:54.024Z,49.17
2018-06-16T11:24:03.476Z,48.97
2018-06-16T11:25:12.912Z,48.97
2018-06-16T11:26:22.629Z,49.17
2018-06-16T11:27:31.866Z,48.97
2018-06-16T11:28:41.076Z,48.97
2018-06-16T11:29:50.520Z,48.97
2018-06-16T11:30:59.967Z,49.07
2018-06-16T11:32:09.651Z,49.17
2018-06-16T11:33:19.685Z,49.17
2018-06-16T11:34:29.565Z,48.97
2018-06-16T11:35:38.262Z,49.17
2018-06-16T11:36:47.442Z,49.17
2018-06-16T11:37:57.056Z,49.07
2018-06-16T11:39:07.156Z,48.97
2018-06-16T11:40:17.588Z,49.07
2018-06-16T11:41:26.834Z,49.07
2018-06-16T11:42:35.755Z,49.17
2018-06-16T11:43:45.033Z,48.97
2018-06-16T11:44:54.476Z,48.88
2018-06-16T11:46:03.681Z,49.07
2018-06-16T11:47:12.999Z,48.88
2018-06-16T11:48:22.460Z,48.97
2018-06-16T11:49:31.895Z,48.97
2018-06-16T11:50:42.035Z,48.88
2018-06-16T11:51:51.766Z,48.97
2018-06-16T11:53:00.764Z,48.88
2018-06-16T11:54:10.202Z,48.88
2018-06-16T11:55:19.409Z,48.88
2018-06-16T11:56:28.945Z,48.88
2018-06-16T11:57:39.122Z,49.17
2018-06-16T11:58:49.194Z,48.88
2018-06-16T11:59:58.629Z,48.88
2018-06-16T12:01:07.804Z,48.97
2018-06-16T12:02:17.539Z,48.88
2018-06-16T12:03:27.528Z,48.97
2018-06-16T12:04:36.827Z,48.88
2018-06-16T12:05:46.586Z,49.17
2018-06-16T12:06:56.309Z,49.07
2018-06-16T12:08:05.754Z,48.79
2018-06-16T12:09:14.483Z,49.17
2018-06-16T12:10:24.480Z,48.97
2018-06-16T12:11:33.653Z,48.97
2018-06-16T12:12:43.362Z,49.17
2018-06-16T12:13:52.940Z,49.17
2018-06-16T12:15:02.354Z,48.97
2018-06-16T12:16:11.572Z,49.17
2018-06-16T12:17:21.018Z,49.17
2018-06-16T12:18:30.987Z,49.07
2018-06-16T12:19:40.470Z,49.07
2018-06-16T12:20:49.461Z,48.88
2018-06-16T12:21:58.915Z,49.07
2018-06-16T12:23:07.881Z,49.07
2018-06-16T12:24:17.566Z,49.07
2018-06-16T12:25:26.737Z,49.17
2018-06-16T12:26:36.070Z,49.27
2018-06-16T12:27:45.565Z,49.17
2018-06-16T12:28:55.279Z,49.17
2018-06-16T12:30:04.667Z,49.17
2018-06-16T12:31:13.865Z,49.07
2018-06-16T12:32:23.304Z,48.97
2018-06-16T12:33:32.492Z,49.07
2018-06-16T12:34:42.170Z,49.17
2018-06-16T12:35:51.208Z,49.17
2018-06-16T12:37:00.968Z,49.17
2018-06-16T12:38:11.050Z,49.07
2018-06-16T12:39:20.833Z,49.17
2018-06-16T12:40:30.015Z,49.17
2018-06-16T12:41:39.758Z,49.07
2018-06-16T12:42:49.590Z,49.27
2018-06-16T12:43:59.106Z,49.07
2018-06-16T12:45:08.794Z,49.07
2018-06-16T12:46:18.534Z,49.17
2018-06-16T12:47:28.706Z,49.17
2018-06-16T12:48:38.209Z,49.07
2018-06-16T12:49:47.647Z,48.88
2018-06-16T12:50:57.191Z,49.17
2018-06-16T12:52:06.631Z,49.07
2018-06-16T12:53:16.767Z,48.88
2018-06-16T12:54:25.677Z,49.07
2018-06-16T12:55:34.896Z,49.17
2018-06-16T12:56:44.041Z,49.07
2018-06-16T12:57:54.036Z,48.88
2018-06-16T12:59:03.581Z,49.07
2018-06-16T13:00:12.480Z,49.07
2018-06-16T13:01:22.430Z,49.17
2018-06-16T13:02:31.738Z,48.88
2018-06-16T13:03:40.946Z,49.17
2018-06-16T13:04:50.369Z,49.07
2018-06-16T13:05:59.532Z,49.07
2018-06-16T13:07:09.218Z,49.07
2018-06-16T13:08:18.731Z,49.07
2018-06-16T13:09:28.568Z,49.17
2018-06-16T13:10:37.823Z,48.97
2018-06-16T13:11:47.311Z,48.88
2018-06-16T13:12:56.511Z,49.27
2018-06-16T13:14:05.708Z,49.07
2018-06-16T13:15:14.637Z,49.17
2018-06-16T13:16:23.601Z,49.07
2018-06-16T13:17:32.882Z,48.97
2018-06-16T13:18:42.571Z,49.07
2018-06-16T13:19:52.040Z,48.97
2018-06-16T13:21:01.420Z,49.07
2018-06-16T13:22:10.590Z,49.07
2018-06-16T13:23:20.304Z,49.07
2018-06-16T13:24:30.013Z,48.97
2018-06-16T13:25:39.197Z,49.07
2018-06-16T13:26:49.250Z,49.07
2018-06-16T13:27:58.220Z,49.17
2018-06-16T13:29:07.253Z,49.17
2018-06-16T13:30:17.370Z,49.07
2018-06-16T13:31:26.592Z,49.17
2018-06-16T13:32:35.845Z,49.17
2018-06-16T13:33:45.361Z,49.07
2018-06-16T13:34:55.202Z,49.07
2018-06-16T13:36:04.833Z,49.07
2018-06-16T13:37:14.356Z,49.07
2018-06-16T13:38:23.550Z,49.17
2018-06-16T13:39:33.328Z,49.27
2018-06-16T13:40:42.554Z,49.07
2018-06-16T13:41:52.256Z,49.07
2018-06-16T13:43:01.523Z,49.07
2018-06-16T13:44:10.773Z,49.07
2018-06-16T13:45:20.239Z,49.07
2018-06-16T13:46:29.987Z,48.97
2018-06-16T13:47:39.724Z,48.97
2018-06-16T13:48:49.441Z,49.07
2018-06-16T13:49:58.666Z,49.07
2018-06-16T13:51:07.844Z,48.97
2018-06-16T13:52:17.278Z,49.07
2018-06-16T13:53:26.993Z,48.97
2018-06-16T13:54:35.970Z,49.27
2018-06-16T13:55:45.422Z,49.07
2018-06-16T13:56:54.872Z,49.07
2018-06-16T13:58:04.398Z,48.88
2018-06-16T13:59:13.866Z,48.97
2018-06-16T14:00:23.072Z,49.07
2018-06-16T14:01:32.755Z,49.07
2018-06-16T14:02:41.939Z,49.17
2018-06-16T14:03:51.486Z,49.07
2018-06-16T14:05:00.907Z,49.07
2018-06-16T14:06:10.583Z,49.17
2018-06-16T14:07:20.063Z,49.07
2018-06-16T14:08:29.856Z,49.27
2018-06-16T14:09:39.286Z,48.97
2018-06-16T14:10:48.860Z,48.97
2018-06-16T14:11:58.417Z,49.17
2018-06-16T14:13:08.137Z,48.97
2018-06-16T14:14:17.552Z,48.97
2018-06-16T14:15:27.311Z,48.97
2018-06-16T14:16:36.777Z,49.37
2018-06-16T14:17:45.953Z,48.88
2018-06-16T14:18:55.756Z,49.07
2018-06-16T14:20:04.693Z,48.97
2018-06-16T14:21:13.920Z,49.27
2018-06-16T14:22:23.200Z,49.27
2018-06-16T14:23:33.098Z,48.97
2018-06-16T14:24:42.663Z,48.97
2018-06-16T14:25:52.528Z,48.97
2018-06-16T14:27:01.731Z,48.88
2018-06-16T14:28:10.932Z,49.07
2018-06-16T14:29:20.382Z,48.97
2018-06-16T14:30:29.884Z,48.69
2018-06-16T14:31:39.070Z,48.97
2018-06-16T14:32:48.316Z,49.07
2018-06-16T14:33:57.559Z,48.88
2018-06-16T14:35:07.048Z,49.07
2018-06-16T14:36:16.913Z,48.88
2018-06-16T14:37:26.620Z,48.97
2018-06-16T14:38:35.844Z,48.97
2018-06-16T14:39:44.822Z,49
2018-06-16T14:40:54.296Z,48.97
2018-06-16T14:42:03.720Z,49
2018-06-16T14:43:13.207Z,49.07
2018-06-16T14:44:22.986Z,49
2018-06-16T14:45:32.450Z,48.97
2018-06-16T14:46:41.614Z,48.9
2018-06-16T14:47:50.793Z,49.29
2018-06-16T14:49:00.795Z,49.39
2018-06-16T14:50:10.287Z,48.71
2018-06-16T14:51:19.285Z,48.88
2018-06-16T14:52:28.631Z,48.61
2018-06-16T14:53:38.208Z,48.61
2018-06-16T14:54:47.424Z,48.61